Airfield :
LOGIN :

Register | Disclaimer

   EN    FR    IT 

 










Legend :    VFR   Marginal VFR   IFR   Intensive IFR   Very Intensive IFR
Visi :
Ceiling :
>= 8 km
>= 3000ft
5 to 8 km
1000 to 3000 ft
1500m to 5 km
500 to 1000 ft
800 to 1500m
200 to 500 ft
< 800m
< 200 ft
Symbols :   Thunderstorms  Fog  Heavy snow  Heavy precipitations  Wind > 20 kt
SIGMETs :     Misc.  Thunderstorms  Icing  Turbulence  Mountain Waves  Volcanic Ashes






- Airport Elevation : 142 ft
- IATA code : ALC


LEAL - Alicante

CURRENT METAR :
  • 012330Z 06007KT 9999 FEW020 24/20 Q1018 NOSIG

EXPIRED METARs :
  • 012300Z 06007KT 9999 FEW020 24/20 Q1018 NOSIG
  • 012200Z 06009KT 9999 FEW013 24/20 Q1018 NOSIG
  • 011630Z 08013KT 050V110 9999 SCT011 26/22 Q1016 NOSIG
  • 012130Z 06008KT 020V080 9999 FEW010 24/21 Q1018 NOSIG
  • 012100Z 06009KT 9999 FEW011 24/21 Q1018 NOSIG

TAF TAF LEAL
Valid from the 02 at 00:00 until the 03 at 00:00 UTC


012300Z 0200/0224 09012KT 9999 FEW015 TX31/0214Z TN21/0206Z
TEMPO 0200/0206 VRB04KT
TEMPO 0210/0218 09020G30KT
BECMG 0220/0223 VRB03KT



MET'MAP, your aeronautical weather chart ! - Copyright ORBIFLY December 2007 - Disclaimer

ORBIFLY MET'MAP TEAM :

Programming & Development : Alexandra Zaïnal
Original concept : Baudouin d'Aumeries
Technical & hardware support : Manuel Goepfert
Assistance : Marc-Olivier Méhu




SOURCES & CREDITS :

   NOAA